Time;durP1;ratioP1;P1;durP2;ratioP2;P2;SDS_P1;SDS_P2;PMS_P1;PMS_P2;Temp;Humidity;BMP_temperature;BMP_pressure;BME280_temperature;BME280_humidity;BME280_pressure;Samples;Min_cycle;Max_cycle;Signal;HPM_P1;HPM_P2
2022/11/03 00:00:39;;;;;;;;;;;;;;;20.89;71.15;99346.13;2073503;28;19925;-50
2022/11/03 00:01:42;;;;;;;15.20;9.77;;;;;;;20.94;71.36;99337.44;2074322;28;19925;-52
2022/11/03 00:02:43;;;;;;;14.75;9.48;;;;;;;20.99;71.03;99343.06;2074395;28;20065;-51
2022/11/03 00:03:45;;;;;;;15.45;9.10;;;;;;;21.02;70.81;99333.72;2075348;28;20763;-51
2022/11/03 00:04:46;;;;;;;15.32;9.57;;;;;;;21.03;70.91;99336.22;2074802;28;20125;-52
2022/11/03 00:06:05;;;;;;;;;;;;;;;20.96;71.20;99336.19;2073233;28;20167;-51
2022/11/03 00:07:07;;;;;;;12.35;8.50;;;;;;;20.98;71.21;99342.22;2068170;28;19925;-51
2022/11/03 00:08:09;;;;;;;12.68;9.13;;;;;;;21.03;71.32;99338.91;2072137;28;20045;-52
2022/11/03 00:09:12;;;;;;;15.55;9.60;;;;;;;21.04;71.29;99345.97;2073330;28;20108;-49
2022/11/03 00:10:13;;;;;;;16.63;9.02;;;;;;;21.04;71.28;99337.06;2074908;28;21389;-49
2022/11/03 00:11:15;;;;;;;;;;;;;;;20.96;71.49;99338.06;2074042;28;20041;-49
2022/11/03 00:12:16;;;;;;;14.80;8.50;;;;;;;21.01;71.27;99337.47;2075133;28;19921;-50
2022/11/03 00:13:17;;;;;;;;;;;;;;;20.92;71.75;99334.94;2075169;28;20077;-50
2022/11/03 00:14:19;;;;;;;;;;;;;;;20.87;71.79;99340.13;2074756;28;19932;-52
2022/11/03 00:15:20;;;;;;;17.15;10.18;;;;;;;20.95;71.49;99336.41;2074294;28;19924;-50
2022/11/03 00:16:22;;;;;;;;;;;;;;;20.89;71.74;99335.31;2074747;28;20571;-51
2022/11/03 00:17:22;;;;;;;16.98;9.43;;;;;;;20.94;71.45;99332.03;2071638;28;19921;-51
2022/11/03 00:18:24;;;;;;;;;;;;;;;20.90;71.54;99338.88;2072331;28;20049;-50
2022/11/03 00:19:25;;;;;;;;;;;;;;;20.86;71.97;99340.28;2072365;28;19980;-50
2022/11/03 00:20:26;;;;;;;18.15;8.57;;;;;;;20.94;71.58;99340.13;2076138;28;19932;-51
2022/11/03 00:21:28;;;;;;;;;;;;;;;20.89;71.98;99339.91;2072660;28;20053;-49
2022/11/03 00:22:28;;;;;;;;;;;;;;;20.84;71.77;99340.53;2069767;28;19952;-52
2022/11/03 00:23:34;;;;;;;13.60;7.93;;;;;;;20.92;71.80;99336.78;2071162;28;19984;-50
2022/11/03 00:24:35;;;;;;;16.35;8.95;;;;;;;20.96;71.62;99340.75;2074901;28;20050;-52
2022/11/03 00:25:37;;;;;;;;;;;;;;;20.91;71.75;99345.94;2074444;28;20050;-51
2022/11/03 00:26:38;;;;;;;11.10;7.97;;;;;;;20.96;71.46;99351.56;2073540;28;19925;-48
2022/11/03 00:27:40;;;;;;;16.27;9.02;;;;;;;21.00;71.53;99352.78;2073925;28;20100;-49
2022/11/03 00:28:42;;;;;;;15.48;8.90;;;;;;;21.02;71.09;99356.13;2066808;28;20050;-49
2022/11/03 00:29:44;;;;;;;14.10;9.27;;;;;;;21.04;71.24;99351.38;2072249;28;20144;-49
2022/11/03 00:30:44;;;;;;;10.80;8.45;;;;;;;21.06;71.22;99356.56;2072505;28;20049;-48
2022/11/03 00:31:46;;;;;;;18.70;9.85;;;;;;;21.05;70.97;99347.63;2071594;28;20060;-50
2022/11/03 00:32:47;;;;;;;15.77;8.95;;;;;;;21.06;70.88;99351.16;2075164;28;20058;-51
2022/11/03 00:33:49;;;;;;;14.38;8.88;;;;;;;21.06;71.00;99354.72;2073727;28;20059;-48
2022/11/03 00:34:50;;;;;;;15.25;9.30;;;;;;;21.07;70.99;99358.22;2069138;28;20049;-50
2022/11/03 00:35:56;;;;;;;;;;;;;;;20.98;71.30;99355.72;2070353;28;20350;-49
2022/11/03 00:36:56;;;;;;;16.52;9.20;;;;;;;21.01;71.24;99357.19;2070357;28;20614;-50
2022/11/03 00:37:58;;;;;;;;;;;;;;;20.95;71.47;99355.28;2073119;28;20054;-50
2022/11/03 00:39:01;;;;;;;17.45;8.80;;;;;;;20.97;71.26;99359.44;2074179;28;19921;-48
2022/11/03 00:40:02;;;;;;;15.95;9.55;;;;;;;21.01;71.14;99354.47;2072173;28;20049;-51
2022/11/03 00:41:05;;;;;;;18.08;9.13;;;;;;;21.04;71.21;99350.56;2074184;28;20045;-47
2022/11/03 00:42:07;;;;;;;16.95;8.50;;;;;;;21.06;70.97;99365.50;2075011;28;20102;-49
2022/11/03 00:43:08;;;;;;;12.43;8.68;;;;;;;21.07;71.01;99352.84;2073325;28;20104;-49
2022/11/03 00:44:12;;;;;;;14.40;9.05;;;;;;;21.06;71.18;99357.41;2075543;28;20060;-49
2022/11/03 00:45:12;;;;;;;17.70;9.18;;;;;;;21.06;70.84;99354.72;2073488;28;20131;-52
2022/11/03 00:46:14;;;;;;;12.25;8.43;;;;;;;21.09;70.90;99356.16;2074479;28;20057;-49
2022/11/03 00:47:15;;;;;;;15.75;8.48;;;;;;;21.08;70.88;99360.72;2075572;28;20045;-48
2022/11/03 00:48:29;;;;;;;12.07;8.10;;;;;;;21.09;70.96;99361.53;2074949;28;20083;-49
2022/11/03 00:49:31;;;;;;;16.38;9.18;;;;;;;21.07;70.91;99364.47;2073686;28;20060;-50
2022/11/03 00:50:33;;;;;;;13.30;8.93;;;;;;;21.06;70.88;99356.56;2075379;28;20050;-48
2022/11/03 00:51:34;;;;;;;12.52;8.35;;;;;;;21.08;70.85;99365.28;2067203;28;20081;-48
2022/11/03 00:52:35;;;;;;;12.57;8.60;;;;;;;21.08;70.89;99363.41;2071510;28;20049;-49
2022/11/03 00:53:38;;;;;;;;;;;;;;;20.99;71.25;99367.31;2075991;28;20054;-50
2022/11/03 00:54:40;;;;;;;15.20;8.50;;;;;;;21.02;70.92;99366.91;2075200;28;20019;-48
2022/11/03 00:55:42;;;;;;;10.98;7.40;;;;;;;21.04;70.80;99358.63;2074743;28;20093;-48
2022/11/03 00:56:43;;;;;;;20.40;8.63;;;;;;;21.06;70.80;99362.81;2077748;28;20049;-51
2022/11/03 00:57:45;;;;;;;11.35;8.82;;;;;;;21.09;70.90;99364.25;2074324;28;20049;-50
2022/11/03 00:58:46;;;;;;;15.25;9.10;;;;;;;21.07;71.07;99367.16;2075062;28;20103;-51
2022/11/03 00:59:47;;;;;;;;;;;;;;;20.97;70.94;99364.00;2076668;28;20060;-51
2022/11/03 01:00:48;;;;;;;13.63;8.63;;;;;;;21.01;71.17;99362.56;2075757;28;19925;-49
2022/11/03 01:01:50;;;;;;;13.63;8.57;;;;;;;21.05;71.22;99368.38;2076208;28;20054;-52
2022/11/03 01:02:50;;;;;;;14.27;8.45;;;;;;;21.06;71.03;99356.56;2071985;28;20420;-52
2022/11/03 01:06:52;;;;;;;16.45;8.25;;;;;;;21.02;70.94;99353.44;2071918;28;20037;-49
2022/11/03 01:07:53;;;;;;;13.80;8.23;;;;;;;21.02;71.07;99347.22;2070437;28;20541;-50
2022/11/03 01:08:55;;;;;;;12.98;8.18;;;;;;;21.04;71.02;99345.97;2074807;28;20045;-48
2022/11/03 01:09:57;;;;;;;14.60;7.88;;;;;;;21.05;70.67;99339.53;2073101;28;20049;-50
2022/11/03 01:12:24;;;;;;;15.30;8.18;;;;;;;21.05;70.71;99344.94;2071931;28;20081;-48
2022/11/03 01:13:25;;;;;;;14.52;9.02;;;;;;;21.06;70.69;99345.75;2074375;28;20426;-47
2022/11/03 01:14:27;;;;;;;;;;;;;;;20.98;71.14;99344.09;2075386;28;20053;-49
2022/11/03 01:15:28;;;;;;;12.63;7.55;;;;;;;21.01;70.85;99343.69;2071268;28;19928;-49
2022/11/03 01:16:30;;;;;;;;;;;;;;;20.96;70.97;99340.75;2075731;28;20055;-49
2022/11/03 01:17:30;;;;;;;;;;;;;;;20.90;71.07;99337.00;2074491;28;19936;-49
2022/11/03 01:18:32;;;;;;;12.47;7.47;;;;;;;20.94;70.91;99335.56;2073833;28;19964;-49
2022/11/03 01:19:33;;;;;;;12.00;7.90;;;;;;;21.00;70.85;99331.22;2074154;28;20394;-52
2022/11/03 01:20:35;;;;;;;11.82;7.50;;;;;;;21.03;70.69;99330.81;2070082;28;20052;-52
2022/11/03 01:21:35;;;;;;;13.93;8.85;;;;;;;21.06;70.70;99324.19;2070201;28;20049;-49
2022/11/03 01:22:37;;;;;;;13.10;8.32;;;;;;;21.05;70.89;99334.16;2073928;28;20055;-49
2022/11/03 01:23:38;;;;;;;13.75;8.02;;;;;;;21.06;70.58;99327.75;2074002;28;20080;-52
2022/11/03 01:24:41;;;;;;;;;;;;;;;20.98;70.81;99328.75;2075552;28;20572;-48
2022/11/03 01:25:43;;;;;;;14.13;8.10;;;;;;;21.02;70.89;99333.72;2073369;28;19986;-48
2022/11/03 01:26:45;;;;;;;16.48;7.72;;;;;;;21.02;70.49;99323.78;2073169;28;20056;-49
2022/11/03 01:27:45;;;;;;;12.32;8.02;;;;;;;21.04;70.80;99326.28;2071696;28;20425;-49
2022/11/03 01:28:47;;;;;;;;;;;;;;;20.97;70.88;99326.25;2076437;28;20124;-49
2022/11/03 01:29:48;;;;;;;12.68;7.10;;;;;;;21.01;70.97;99332.91;2072834;28;19925;-50
2022/11/03 01:30:50;;;;;;;12.27;8.43;;;;;;;21.04;70.78;99326.28;2072473;28;20593;-52
2022/11/03 01:31:51;;;;;;;12.70;7.63;;;;;;;21.05;70.63;99326.06;2071728;28;20056;-51
2022/11/03 01:32:52;;;;;;;;;;;;;;;20.96;70.88;99324.59;2074303;28;20148;-52
2022/11/03 01:33:54;;;;;;;;;;;;;;;20.90;71.13;99328.09;2073257;28;19928;-52
2022/11/03 01:34:56;;;;;;;16.00;7.85;;;;;;;20.95;70.95;99325.63;2074400;28;19921;-48
2022/11/03 01:35:57;;;;;;;14.95;8.73;;;;;;;21.01;71.23;99329.38;2070584;28;20049;-48
2022/11/03 01:36:59;;;;;;;12.35;7.05;;;;;;;21.04;71.01;99329.81;2069576;28;20473;-50
2022/11/03 01:37:59;;;;;;;11.50;8.38;;;;;;;21.05;70.83;99320.66;2074373;28;20042;-49
2022/11/03 01:39:01;;;;;;;14.30;9.23;;;;;;;21.06;70.50;99321.50;2073250;28;20122;-49
2022/11/03 01:40:02;;;;;;;16.80;9.45;;;;;;;21.08;70.69;99319.44;2072682;28;20115;-48
2022/11/03 01:41:09;;;;;;;14.30;8.65;;;;;;;21.07;70.72;99329.41;2071303;28;20056;-52
2022/11/03 01:42:11;;;;;;;11.07;7.25;;;;;;;21.06;70.69;99325.03;2074024;28;20053;-48
2022/11/03 01:43:16;;;;;;;17.10;8.15;;;;;;;21.06;70.69;99325.03;2074344;28;20039;-50
2022/11/03 01:44:30;;;;;;;15.95;8.93;;;;;;;21.05;70.74;99320.66;2073171;28;20037;-50
2022/11/03 01:45:32;;;;;;;12.32;7.13;;;;;;;21.06;70.51;99319.66;2074591;28;20464;-51
2022/11/03 01:46:41;;;;;;;12.38;8.38;;;;;;;21.09;70.64;99321.09;2074498;28;20045;-52
2022/11/03 01:47:44;;;;;;;15.20;8.73;;;;;;;21.07;70.65;99325.88;2075295;28;20056;-53
2022/11/03 01:48:48;;;;;;;14.10;7.70;;;;;;;21.08;70.64;99322.13;2074185;28;20128;-51
2022/11/03 01:49:54;;;;;;;10.88;7.22;;;;;;;21.06;70.50;99316.94;2074782;28;20063;-51
2022/11/03 01:50:55;;;;;;;9.85;7.47;;;;;;;21.06;70.49;99316.09;2071194;28;20056;-50
2022/11/03 01:52:02;;;;;;;12.55;7.65;;;;;;;21.06;70.76;99319.66;2072362;28;20160;-48
2022/11/03 01:53:03;;;;;;;13.77;7.95;;;;;;;21.07;70.56;99315.09;2072457;28;20076;-51
2022/11/03 01:54:09;;;;;;;7.80;6.57;;;;;;;21.09;70.44;99323.78;2073742;28;21226;-48
2022/11/03 01:55:15;;;;;;;12.10;8.85;;;;;;;21.08;70.56;99314.84;2074602;28;20049;-49
2022/11/03 01:56:19;;;;;;;13.15;7.97;;;;;;;21.09;70.46;99318.38;2074659;28;20668;-48
2022/11/03 01:57:24;;;;;;;13.38;7.43;;;;;;;21.08;70.47;99317.56;2074128;28;20045;-50
2022/11/03 01:58:30;;;;;;;18.08;7.30;;;;;;;21.08;70.29;99312.16;2074838;28;20826;-49
2022/11/03 01:59:31;;;;;;;11.57;8.00;;;;;;;21.09;70.71;99315.69;2074879;28;20061;-50
2022/11/03 02:00:33;;;;;;;15.43;8.60;;;;;;;21.07;70.74;99299.72;2074545;28;20053;-48
2022/11/03 02:01:35;;;;;;;12.75;7.93;;;;;;;21.09;70.57;99308.44;2067444;28;20049;-50
2022/11/03 02:02:37;;;;;;;12.07;7.07;;;;;;;21.09;70.30;99308.44;2075512;28;20057;-50
2022/11/03 02:03:45;;;;;;;14.73;8.63;;;;;;;21.09;70.46;99303.06;2074406;28;20053;-49
2022/11/03 02:04:47;;;;;;;9.45;6.95;;;;;;;21.07;70.36;99302.41;2074500;28;20077;-51
2022/11/03 02:05:49;;;;;;;10.07;7.00;;;;;;;21.08;70.26;99301.38;2074538;28;20046;-48
2022/11/03 02:06:55;;;;;;;11.13;7.82;;;;;;;21.09;70.32;99308.44;2070553;28;20060;-48
2022/11/03 02:08:00;;;;;;;12.45;7.72;;;;;;;21.08;70.46;99298.69;2069666;28;20053;-49
2022/11/03 02:09:03;;;;;;;11.27;6.68;;;;;;;21.09;70.46;99302.19;2071187;28;20037;-47
2022/11/03 02:10:07;;;;;;;12.95;7.80;;;;;;;21.08;70.35;99306.78;2071917;28;21131;-48
2022/11/03 02:12:26;;;;;;;9.20;7.07;;;;;;;21.08;70.50;99300.53;2073928;28;20505;-51
2022/11/03 02:13:27;;;;;;;14.30;7.15;;;;;;;21.08;70.51;99298.69;2074833;28;20080;-49
2022/11/03 02:14:29;;;;;;;;;;;;;;;20.99;70.99;99299.91;2074722;28;20393;-50
2022/11/03 02:15:31;;;;;;;;;;;;;;;20.92;71.26;99299.03;2074989;28;19924;-50
2022/11/03 02:16:32;;;;;;;12.48;7.32;;;;;;;20.96;71.11;99298.44;2073660;28;20000;-49
2022/11/03 02:17:36;;;;;;;12.98;7.65;;;;;;;21.01;70.96;99300.53;2073645;28;20152;-50
2022/11/03 02:18:38;;;;;;;11.38;6.95;;;;;;;21.04;70.67;99300.13;2072171;28;20045;-50
2022/11/03 02:19:44;;;;;;;12.55;7.35;;;;;;;21.07;70.76;99301.59;2074430;28;20053;-49
2022/11/03 02:20:54;;;;;;;13.32;7.20;;;;;;;21.09;70.42;99299.50;2073649;28;20056;-52
2022/11/03 02:22:03;;;;;;;10.77;7.07;;;;;;;21.05;70.54;99291.00;2068411;28;20724;-51
2022/11/03 02:23:18;;;;;;;14.45;7.50;;;;;;;21.05;70.71;99285.59;2072672;28;20045;-51
2022/11/03 02:24:26;;;;;;;13.45;8.75;;;;;;;21.05;70.58;99291.00;2070467;28;20124;-51
2022/11/03 02:25:46;;;;;;;21.10;7.10;;;;;;;21.03;70.66;99284.97;2069607;28;20045;-51
2022/11/03 02:26:51;;;;;;;10.90;6.68;;;;;;;21.04;70.77;99286.66;2065659;28;20053;-52
2022/11/03 02:27:53;;;;;;;14.10;7.82;;;;;;;21.06;70.76;99284.59;2072976;28;20131;-49
2022/11/03 02:28:54;;;;;;;16.58;7.57;;;;;;;21.06;70.67;99273.78;2072858;28;20061;-49
2022/11/03 02:29:57;;;;;;;;;;;;;;;20.99;70.91;99283.72;2071155;28;20053;-51
2022/11/03 02:31:09;;;;;;;11.82;7.65;;;;;;;21.01;71.02;99287.06;2070583;28;19925;-50
2022/11/03 02:32:21;;;;;;;13.35;7.00;;;;;;;21.03;70.94;99282.28;2073737;28;22572;-48
2022/11/03 02:33:30;;;;;;;13.93;7.88;;;;;;;21.04;70.78;99278.56;2075334;28;20072;-49
2022/11/03 02:34:39;;;;;;;10.13;6.80;;;;;;;21.05;70.46;99274.81;2070204;28;20053;-50
2022/11/03 02:35:47;;;;;;;10.95;7.47;;;;;;;21.04;70.84;99267.78;2070374;28;20111;-50
2022/11/03 02:36:55;;;;;;;11.73;6.90;;;;;;;21.05;70.77;99266.72;2076809;28;20191;-51
2022/11/03 02:37:58;;;;;;;10.02;6.68;;;;;;;21.05;70.80;99266.72;2076141;28;20049;-49
2022/11/03 02:39:04;;;;;;;21.67;8.95;;;;;;;21.06;70.50;99263.00;2075042;28;20126;-50
2022/11/03 02:40:08;;;;;;;14.85;6.90;;;;;;;21.06;70.60;99260.31;2076548;28;20042;-49
2022/11/03 02:41:13;;;;;;;10.25;7.53;;;;;;;21.06;70.79;99264.84;2075501;28;20374;-52
2022/11/03 02:42:17;;;;;;;8.25;6.82;;;;;;;21.06;70.44;99259.47;2073451;28;20053;-49
2022/11/03 02:43:21;;;;;;;9.88;7.35;;;;;;;21.06;70.68;99248.66;2076109;28;20046;-47
2022/11/03 02:44:24;;;;;;;9.95;6.22;;;;;;;21.07;70.47;99253.88;2070765;28;20470;-50
2022/11/03 02:45:27;;;;;;;12.48;7.70;;;;;;;21.07;70.44;99255.75;2071909;28;20045;-47
2022/11/03 02:46:31;;;;;;;15.75;7.22;;;;;;;21.07;70.64;99251.19;2073487;28;20046;-50
2022/11/03 02:47:34;;;;;;;9.30;7.00;;;;;;;21.06;70.41;99254.91;2071911;28;20042;-50
2022/11/03 02:48:36;;;;;;;10.40;7.10;;;;;;;21.07;70.35;99251.19;2072708;28;20041;-50
2022/11/03 02:49:38;;;;;;;13.85;6.57;;;;;;;21.07;70.23;99259.25;2073140;28;20045;-48
2022/11/03 02:50:40;;;;;;;12.85;7.53;;;;;;;21.08;70.49;99258.22;2066941;28;20056;-49
2022/11/03 02:51:41;;;;;;;12.07;7.78;;;;;;;21.09;70.63;99257.19;2073605;28;20060;-48
2022/11/03 02:52:44;;;;;;;;;;;;;;;20.97;70.42;99253.44;2075628;28;20235;-55
2022/11/03 02:53:54;;;;;;;13.55;6.82;;;;;;;21.01;70.51;99262.78;2073389;28;19957;-50
2022/11/03 02:54:58;;;;;;;16.50;7.47;;;;;;;21.03;70.36;99258.00;2074118;28;20061;-49
2022/11/03 02:56:04;;;;;;;10.27;6.53;;;;;;;21.05;70.46;99258.63;2072297;28;20465;-48
2022/11/03 02:57:14;;;;;;;16.88;7.75;;;;;;;21.05;70.50;99252.41;2066505;28;20111;-51
2022/11/03 02:58:21;;;;;;;10.43;7.47;;;;;;;21.06;70.36;99254.06;2073788;28;20046;-47
2022/11/03 02:59:27;;;;;;;12.45;6.80;;;;;;;21.04;70.20;99256.97;2074007;28;20060;-49
2022/11/03 03:00:32;;;;;;;10.82;7.28;;;;;;;21.05;70.41;99258.63;2072777;28;20060;-49
2022/11/03 03:01:45;;;;;;;10.07;6.97;;;;;;;21.07;70.29;99261.13;2074932;28;20436;-52
2022/11/03 03:02:56;;;;;;;14.45;7.80;;;;;;;21.04;70.26;99256.97;2074131;28;20204;-50
2022/11/03 03:04:01;;;;;;;9.82;6.72;;;;;;;21.04;70.12;99254.28;2072713;28;20623;-47
2022/11/03 03:05:04;;;;;;;10.43;7.07;;;;;;;21.06;70.41;99257.63;2070732;28;20517;-50
2022/11/03 03:06:09;;;;;;;7.53;6.10;;;;;;;21.05;70.34;99250.53;2069087;28;20049;-49
2022/11/03 03:07:16;;;;;;;12.93;6.60;;;;;;;21.06;70.02;99257.63;2071237;28;20057;-52
2022/11/03 03:08:20;;;;;;;10.73;7.28;;;;;;;21.06;70.13;99251.38;2072615;28;20053;-50
2022/11/03 03:09:25;;;;;;;9.38;6.10;;;;;;;21.05;70.41;99260.50;2073149;28;20053;-50
2022/11/03 03:10:32;;;;;;;8.48;6.38;;;;;;;21.05;70.20;99258.63;2071447;28;20057;-51
2022/11/03 03:11:37;;;;;;;10.02;6.80;;;;;;;21.05;70.35;99264.03;2073583;28;20045;-50
2022/11/03 03:12:43;;;;;;;9.23;6.93;;;;;;;21.05;70.29;99257.81;2073433;28;20057;-50
2022/11/03 03:13:44;;;;;;;8.68;6.10;;;;;;;21.06;70.27;99260.31;2074487;28;20060;-48
2022/11/03 03:14:50;;;;;;;12.68;6.95;;;;;;;21.05;70.38;99266.72;2072361;28;20516;-48
2022/11/03 03:16:04;;;;;;;9.60;6.25;;;;;;;21.05;70.30;99264.03;2075604;28;20052;-48
2022/11/03 03:17:13;;;;;;;12.13;6.72;;;;;;;21.04;70.53;99262.38;2073734;28;20052;-49
2022/11/03 03:18:22;;;;;;;8.40;6.35;;;;;;;21.05;70.13;99258.63;2073387;28;20049;-49
2022/11/03 03:19:37;;;;;;;12.68;6.45;;;;;;;21.04;70.10;99262.38;2074930;28;20132;-49
2022/11/03 03:20:45;;;;;;;9.65;7.07;;;;;;;21.04;70.25;99256.16;2069777;28;20041;-49
2022/11/03 03:21:50;;;;;;;21.23;7.95;;;;;;;21.04;70.27;99261.56;2071266;28;20653;-48
2022/11/03 03:22:57;;;;;;;10.35;6.45;;;;;;;21.06;70.18;99254.06;2073781;28;20061;-51
2022/11/03 03:24:01;;;;;;;8.68;6.63;;;;;;;21.05;70.38;99253.25;2074301;28;20125;-52
2022/11/03 03:25:09;;;;;;;9.93;6.72;;;;;;;21.06;70.64;99259.47;2073065;28;20056;-50
2022/11/03 03:26:16;;;;;;;10.45;6.45;;;;;;;21.06;70.56;99265.72;2072363;28;20068;-47
2022/11/03 03:27:25;;;;;;;8.30;6.10;;;;;;;21.05;70.46;99257.81;2071076;28;20088;-48
2022/11/03 03:28:31;;;;;;;15.40;7.50;;;;;;;21.05;70.62;99261.31;2067711;28;20141;-48
2022/11/03 03:29:39;;;;;;;8.18;6.57;;;;;;;21.05;70.35;99258.63;2073574;28;20045;-49
2022/11/03 03:30:42;;;;;;;10.15;6.57;;;;;;;21.05;70.61;99258.63;2072727;28;20057;-48
2022/11/03 03:31:49;;;;;;;11.18;6.53;;;;;;;21.05;70.50;99258.63;2072988;28;20639;-50
2022/11/03 03:32:54;;;;;;;9.05;5.65;;;;;;;21.06;70.36;99256.75;2074119;28;20061;-48
2022/11/03 03:33:57;;;;;;;8.85;6.05;;;;;;;21.05;70.28;99261.31;2073365;28;20049;-47
2022/11/03 03:35:02;;;;;;;10.38;7.22;;;;;;;21.05;70.38;99260.50;2074668;28;20148;-48
2022/11/03 03:36:08;;;;;;;11.07;7.18;;;;;;;21.07;70.55;99258.44;2063949;28;20168;-47
2022/11/03 03:37:12;;;;;;;10.05;6.32;;;;;;;21.06;70.58;99262.16;2073533;28;20041;-48
2022/11/03 03:38:18;;;;;;;11.20;7.55;;;;;;;21.06;70.34;99262.16;2071920;28;20529;-51
2022/11/03 03:39:24;;;;;;;10.50;7.28;;;;;;;21.05;70.44;99261.31;2070882;28;20622;-49
2022/11/03 03:40:29;;;;;;;12.60;6.40;;;;;;;21.05;70.44;99264.03;2073110;28;20056;-48
2022/11/03 03:41:33;;;;;;;7.50;5.72;;;;;;;21.03;70.59;99263.38;2075168;28;20053;-50
2022/11/03 03:42:36;;;;;;;10.70;6.70;;;;;;;21.04;70.48;99259.69;2072617;28;20045;-48
2022/11/03 03:43:42;;;;;;;10.45;6.65;;;;;;;21.06;70.23;99259.47;2074536;28;20064;-50
2022/11/03 03:44:45;;;;;;;13.60;7.18;;;;;;;21.05;70.30;99257.81;2072982;28;20057;-51
2022/11/03 03:45:51;;;;;;;7.72;5.65;;;;;;;21.06;70.26;99256.75;2072387;28;20061;-48
2022/11/03 03:46:59;;;;;;;8.75;6.40;;;;;;;21.05;70.24;99257.81;2073782;28;20473;-48
2022/11/03 03:48:02;;;;;;;12.73;6.30;;;;;;;21.05;70.37;99258.63;2072965;28;20053;-51
2022/11/03 03:49:03;;;;;;;8.80;5.75;;;;;;;21.05;70.46;99258.63;2075753;28;20069;-51
2022/11/03 03:50:06;;;;;;;8.15;6.03;;;;;;;21.05;70.50;99258.63;2074340;28;20101;-49
2022/11/03 03:51:09;;;;;;;8.30;5.95;;;;;;;21.05;70.34;99255.09;2073116;28;20049;-49
2022/11/03 03:52:12;;;;;;;10.43;6.55;;;;;;;21.06;70.24;99259.47;2071490;28;20551;-50
2022/11/03 03:53:14;;;;;;;12.82;5.78;;;;;;;21.05;70.04;99255.94;2068388;28;20050;-48
2022/11/03 03:54:16;;;;;;;7.93;5.72;;;;;;;21.05;70.12;99260.50;2073557;28;20053;-48
2022/11/03 03:55:20;;;;;;;10.35;5.50;;;;;;;21.05;70.25;99253.25;2073172;28;20092;-50
2022/11/03 03:56:28;;;;;;;15.27;6.47;;;;;;;21.05;70.12;99253.25;2070690;28;20042;-48
2022/11/03 03:57:31;;;;;;;10.80;6.25;;;;;;;21.05;70.11;99257.81;2074369;28;20060;-50
2022/11/03 03:58:32;;;;;;;12.25;6.10;;;;;;;21.05;70.35;99258.63;2073516;28;20058;-51
2022/11/03 03:59:35;;;;;;;8.23;5.97;;;;;;;21.07;70.40;99263.84;2073104;28;20053;-48
2022/11/03 04:00:38;;;;;;;10.60;6.45;;;;;;;21.07;70.32;99264.66;2071998;28;20048;-50
2022/11/03 04:01:39;;;;;;;10.45;6.10;;;;;;;21.05;70.25;99264.03;2073833;28;20057;-48
2022/11/03 04:02:41;;;;;;;11.32;6.88;;;;;;;21.04;70.03;99256.97;2071225;28;20896;-49
2022/11/03 04:03:42;;;;;;;11.40;6.70;;;;;;;21.05;70.38;99260.50;2074124;28;20053;-51
2022/11/03 04:04:43;;;;;;;;;;;;;;;20.96;70.54;99262.56;2072950;28;20505;-48
2022/11/03 04:05:44;;;;;;;;;;;;;;;20.87;70.77;99261.91;2072289;28;19932;-49
2022/11/03 04:06:46;;;;;;;13.90;5.97;;;;;;;20.93;70.91;99260.28;2067477;28;19932;-49
2022/11/03 04:07:47;;;;;;;10.43;6.63;;;;;;;20.98;70.45;99263.19;2072421;28;20053;-49
2022/11/03 04:08:49;;;;;;;10.38;6.32;;;;;;;20.98;70.55;99264.03;2071031;28;20523;-50
2022/11/03 04:09:50;;;;;;;8.18;5.78;;;;;;;21.00;70.51;99263.81;2075886;28;20168;-49
2022/11/03 04:22:52;;;;;;;7.88;5.50;;;;;;;20.98;70.55;99273.97;2075039;28;20603;-48
2022/11/03 04:23:53;;;;;;;8.85;6.65;;;;;;;21.00;70.52;99277.28;2072024;28;20049;-50
2022/11/03 04:24:55;;;;;;;7.75;5.93;;;;;;;21.01;70.38;99273.56;2072308;28;20128;-49
2022/11/03 04:25:56;;;;;;;7.93;5.78;;;;;;;21.01;70.19;99278.16;2075897;28;20525;-49
2022/11/03 04:27:02;;;;;;;9.52;5.75;;;;;;;21.03;70.01;99276.88;2074673;28;20053;-49
2022/11/03 04:28:08;;;;;;;9.80;5.90;;;;;;;21.03;70.12;99274.19;2076046;28;20045;-50
2022/11/03 04:29:11;;;;;;;9.15;5.95;;;;;;;21.02;70.21;99277.09;2073880;28;21040;-49
2022/11/03 04:30:16;;;;;;;11.38;6.10;;;;;;;21.02;70.20;99271.69;2076134;28;20056;-47
2022/11/03 04:31:19;;;;;;;9.57;5.00;;;;;;;21.02;70.04;99274.41;2074223;28;20140;-50
2022/11/03 04:32:20;;;;;;;11.70;5.88;;;;;;;21.01;70.20;99276.28;2074534;28;20056;-48
2022/11/03 04:33:22;;;;;;;8.07;5.82;;;;;;;21.03;70.13;99276.88;2075743;28;20573;-51
2022/11/03 04:34:23;;;;;;;10.77;5.60;;;;;;;21.02;70.06;99272.53;2074967;28;20041;-47
2022/11/03 04:35:28;;;;;;;8.20;5.82;;;;;;;21.03;70.32;99271.47;2070302;28;20194;-48
2022/11/03 04:36:28;;;;;;;11.23;6.25;;;;;;;21.02;70.12;99272.53;2073191;28;20049;-49
2022/11/03 04:37:30;;;;;;;8.65;5.97;;;;;;;21.03;70.10;99271.47;2070824;28;20055;-49
2022/11/03 04:38:32;;;;;;;8.13;5.47;;;;;;;21.03;69.99;99270.66;2074940;28;20045;-48
2022/11/03 04:39:33;;;;;;;11.88;6.43;;;;;;;21.03;70.05;99266.09;2074395;28;20108;-48
2022/11/03 04:40:35;;;;;;;10.45;6.35;;;;;;;21.03;70.04;99265.25;2076354;28;20068;-48
2022/11/03 04:41:37;;;;;;;8.13;4.90;;;;;;;21.03;70.38;99262.56;2075315;28;20057;-48
2022/11/03 04:42:39;;;;;;;10.80;5.65;;;;;;;21.03;69.88;99266.09;2074949;28;20049;-48
2022/11/03 04:43:40;;;;;;;9.10;5.28;;;;;;;21.03;69.87;99263.38;2073943;28;20055;-48
2022/11/03 04:44:42;;;;;;;9.63;5.50;;;;;;;21.04;69.92;99267.78;2074668;28;20080;-52
2022/11/03 04:45:46;;;;;;;6.15;5.43;;;;;;;21.02;69.96;99261.75;2074375;28;20390;-48
2022/11/03 04:46:48;;;;;;;9.07;5.63;;;;;;;21.03;70.25;99265.25;2071080;28;20090;-49
2022/11/03 04:47:49;;;;;;;8.27;6.00;;;;;;;21.03;70.18;99267.97;2072217;28;20060;-49
2022/11/03 04:48:53;;;;;;;8.27;5.03;;;;;;;21.04;70.20;99270.47;2073823;28;20088;-50
2022/11/03 04:49:54;;;;;;;9.40;6.32;;;;;;;21.03;69.90;99270.66;2073092;28;20064;-50
2022/11/03 04:50:59;;;;;;;11.13;5.30;;;;;;;21.02;70.23;99267.13;2071280;28;20053;-48
2022/11/03 04:52:00;;;;;;;9.20;5.30;;;;;;;21.01;69.91;99268.19;2074560;28;20049;-47
2022/11/03 04:53:01;;;;;;;10.52;5.47;;;;;;;21.02;69.84;99267.13;2075230;28;20585;-49
2022/11/03 04:54:11;;;;;;;7.00;5.40;;;;;;;21.03;69.95;99262.56;2075980;28;20060;-51
2022/11/03 04:55:15;;;;;;;12.32;6.60;;;;;;;21.02;70.12;99263.59;2075448;28;20041;-48
2022/11/03 04:56:20;;;;;;;9.25;6.47;;;;;;;21.02;69.77;99269.84;2072512;28;20159;-49
2022/11/03 04:57:21;;;;;;;10.25;5.95;;;;;;;21.03;70.12;99265.25;2070505;28;20041;-48
2022/11/03 04:58:25;;;;;;;9.27;5.10;;;;;;;21.04;69.79;99267.78;2075754;28;20681;-52
2022/11/03 04:59:27;;;;;;;8.65;5.75;;;;;;;21.04;69.85;99266.94;2072505;28;20057;-52
2022/11/03 05:00:28;;;;;;;12.68;5.63;;;;;;;21.04;69.69;99266.94;2074440;28;20049;-48
2022/11/03 05:01:31;;;;;;;15.82;5.68;;;;;;;21.03;69.79;99260.69;2075386;28;20072;-48
2022/11/03 05:02:32;;;;;;;11.73;5.47;;;;;;;21.03;69.85;99258.00;2072626;28;20042;-48
2022/11/03 05:03:36;;;;;;;8.13;5.05;;;;;;;21.03;69.94;99251.78;2073665;28;20047;-51
2022/11/03 05:04:37;;;;;;;13.25;6.03;;;;;;;21.03;70.10;99258.00;2075327;28;20045;-49
2022/11/03 05:05:38;;;;;;;;;;;;;;;20.92;70.16;99263.97;2070281;28;20056;-50
2022/11/03 05:06:39;;;;;;;;;;;;;;;20.85;70.49;99255.06;2071663;28;19929;-50
2022/11/03 05:07:41;;;;;;;9.07;5.50;;;;;;;20.89;70.44;99259.81;2074627;28;19955;-48
2022/11/03 05:08:44;;;;;;;12.90;6.65;;;;;;;20.94;70.05;99257.34;2075455;28;20053;-50
2022/11/03 05:09:46;;;;;;;11.85;5.32;;;;;;;20.96;70.16;99257.16;2074357;28;20077;-49
2022/11/03 05:10:48;;;;;;;8.63;5.70;;;;;;;20.97;69.97;99245.34;2073945;28;20053;-51
2022/11/03 05:11:50;;;;;;;19.02;5.93;;;;;;;21.00;69.91;99258.41;2071256;28;20343;-49
2022/11/03 05:12:53;;;;;;;10.75;5.63;;;;;;;21.00;70.04;99252.19;2072895;28;20057;-50
2022/11/03 05:14:00;;;;;;;13.57;5.90;;;;;;;20.99;69.90;99254.06;2074119;28;20061;-49
2022/11/03 05:15:19;;;;;;;10.95;5.43;;;;;;;20.99;70.16;99256.75;2073376;28;20297;-49
2022/11/03 05:16:21;;;;;;;8.95;5.05;;;;;;;20.97;70.18;99250.72;2075403;28;20048;-49
2022/11/03 05:17:26;;;;;;;11.00;5.35;;;;;;;20.99;69.96;99251.38;2074208;28;20069;-48